createdAt,value
2022-08-01T00:04:44.382Z,97194.00
2022-08-01T00:09:45.287Z,97197.00
2022-08-01T00:14:46.165Z,97195.00
2022-08-01T00:19:47.119Z,97193.00
2022-08-01T00:24:47.949Z,97194.00
2022-08-01T00:30:09.734Z,97187.00
2022-08-01T00:35:13.756Z,97195.00
2022-08-01T00:40:14.885Z,97196.00
2022-08-01T00:45:16.223Z,97191.00
2022-08-01T00:50:17.350Z,97190.00
2022-08-01T00:55:19.779Z,97196.00
2022-08-01T01:00:27.167Z,97207.00
2022-08-01T01:05:28.760Z,97196.00
2022-08-01T01:11:17.834Z,97190.00
2022-08-01T01:16:20.547Z,97194.00
2022-08-01T01:22:27.569Z,97192.00
2022-08-01T01:29:05.815Z,97193.00
2022-08-01T01:34:09.957Z,97196.00
2022-08-01T01:39:14.364Z,97195.00
2022-08-01T01:44:17.473Z,97200.00
2022-08-01T01:49:24.084Z,97202.00
2022-08-01T01:54:30.450Z,97203.00
2022-08-01T01:59:34.723Z,97202.00
2022-08-01T02:04:38.341Z,97202.00
2022-08-01T02:09:42.417Z,97198.00
2022-08-01T02:14:46.044Z,97199.00
2022-08-01T02:19:47.180Z,97199.00
2022-08-01T02:25:21.158Z,97208.00
2022-08-01T02:30:24.632Z,97209.00
2022-08-01T02:35:28.779Z,97209.00
2022-08-01T02:40:33.042Z,97200.00
2022-08-01T02:45:37.641Z,97203.00
2022-08-01T02:50:42.247Z,97203.00
2022-08-01T02:55:45.372Z,97203.00
2022-08-01T03:00:47.186Z,97207.00
2022-08-01T03:05:49.641Z,97209.00
2022-08-01T03:10:52.720Z,97211.00
2022-08-01T03:15:56.048Z,97207.00
2022-08-01T03:20:59.673Z,97199.00
2022-08-01T03:26:02.289Z,97202.00
2022-08-01T03:31:03.783Z,97197.00
2022-08-01T03:36:09.279Z,97197.00
2022-08-01T03:41:16.085Z,97202.00
2022-08-01T03:46:21.253Z,97205.00
2022-08-01T03:51:23.523Z,97210.00
2022-08-01T03:56:25.557Z,97213.00
2022-08-01T04:01:28.245Z,97221.00
2022-08-01T04:06:29.422Z,97211.00
2022-08-01T04:11:30.772Z,97199.00
2022-08-01T04:16:31.597Z,97201.00
2022-08-01T04:21:33.095Z,97201.00
2022-08-01T04:26:36.477Z,97205.00
2022-08-01T04:31:42.161Z,97206.00
2022-08-01T04:36:44.578Z,97214.00
2022-08-01T04:41:47.425Z,97226.00
2022-08-01T04:46:50.137Z,97222.00
2022-08-01T04:52:00.257Z,97223.00
2022-08-01T04:57:01.555Z,97234.00
2022-08-01T05:02:02.468Z,97236.00
2022-08-01T05:07:04.543Z,97233.00
2022-08-01T05:12:07.148Z,97237.00
2022-08-01T05:17:09.248Z,97236.00
2022-08-01T05:22:10.438Z,97241.00
2022-08-01T05:27:13.538Z,97249.00
2022-08-01T05:32:16.558Z,97250.00
2022-08-01T05:37:17.541Z,97245.00
2022-08-01T05:42:18.601Z,97251.00
2022-08-01T05:47:19.771Z,97251.00
2022-08-01T05:52:20.630Z,97250.00
2022-08-01T05:57:21.669Z,97256.00
2022-08-01T06:02:23.969Z,97256.00
2022-08-01T06:07:24.894Z,97262.00
2022-08-01T06:12:25.868Z,97275.00
2022-08-01T06:17:26.759Z,97283.00
2022-08-01T06:22:27.694Z,97285.00
2022-08-01T06:27:29.195Z,97299.00
2022-08-01T06:32:31.338Z,97302.00
2022-08-01T06:37:33.055Z,97302.00
2022-08-01T06:42:38.011Z,97307.00
2022-08-01T06:47:40.213Z,97308.00
2022-08-01T06:52:41.686Z,97296.00
2022-08-01T06:58:00.890Z,97297.00
2022-08-01T07:03:02.133Z,97306.00
2022-08-01T07:08:03.516Z,97291.00
2022-08-01T07:13:04.416Z,97291.00
2022-08-01T07:18:05.323Z,97290.00
2022-08-01T07:23:06.225Z,97286.00
2022-08-01T07:28:09.000Z,97279.00
2022-08-01T07:33:10.236Z,97278.00
2022-08-01T07:38:12.868Z,97281.00
2022-08-01T07:43:14.056Z,97275.00
2022-08-01T07:48:15.020Z,97284.00
2022-08-01T07:53:16.028Z,97273.00
2022-08-01T07:58:17.446Z,97285.00
2022-08-01T08:03:18.282Z,97288.00
2022-08-01T08:08:19.512Z,97293.00
2022-08-01T08:13:22.852Z,97294.00
2022-08-01T08:18:23.679Z,97295.00
2022-08-01T08:23:44.095Z,97299.00
2022-08-01T08:28:45.295Z,97307.00
2022-08-01T08:33:46.169Z,97306.00
2022-08-01T08:38:47.333Z,97297.00
2022-08-01T08:43:48.962Z,97295.00
2022-08-01T08:48:52.092Z,97297.00
2022-08-01T08:53:55.860Z,97292.00
2022-08-01T08:58:57.701Z,97286.00
2022-08-01T09:03:58.687Z,97293.00
2022-08-01T09:09:00.363Z,97296.00
2022-08-01T09:14:12.548Z,97294.00
2022-08-01T09:19:40.322Z,97295.00
2022-08-01T09:24:42.217Z,97290.00
2022-08-01T09:29:44.845Z,97297.00
2022-08-01T09:34:50.876Z,97289.00
2022-08-01T09:39:56.451Z,97301.00
2022-08-01T09:44:57.378Z,97301.00
2022-08-01T09:49:59.971Z,97299.00
2022-08-01T09:55:06.383Z,97297.00
2022-08-01T10:00:29.542Z,97296.00
2022-08-01T10:05:37.454Z,97303.00
2022-08-01T10:10:38.540Z,97296.00
2022-08-01T10:15:40.384Z,97292.00
2022-08-01T10:20:43.022Z,97278.00
2022-08-01T10:25:46.915Z,97273.00
2022-08-01T10:30:49.404Z,97267.00
2022-08-01T10:35:51.569Z,97269.00
2022-08-01T10:40:54.591Z,97267.00
2022-08-01T10:45:56.481Z,97271.00
2022-08-01T10:51:04.251Z,97265.00
2022-08-01T10:56:07.783Z,97261.00
2022-08-01T11:01:45.023Z,97244.00
2022-08-01T11:07:10.182Z,97249.00
2022-08-01T11:12:23.541Z,97259.00
2022-08-01T11:17:37.884Z,97247.00
2022-08-01T11:29:32.198Z,97242.00
2022-08-01T11:34:55.787Z,97233.00
2022-08-01T11:40:16.601Z,97230.00
2022-08-01T11:45:18.887Z,97227.00
2022-08-01T11:50:34.773Z,97221.00
2022-08-01T11:55:35.896Z,97224.00
2022-08-01T12:00:37.509Z,97225.00
2022-08-01T12:05:44.994Z,97216.00
2022-08-01T12:10:50.344Z,97213.00
2022-08-01T12:15:56.465Z,97223.00
2022-08-01T12:21:05.133Z,97215.00
2022-08-01T12:26:06.111Z,97220.00
2022-08-01T12:31:07.024Z,97218.00
2022-08-01T12:36:08.641Z,97213.00
2022-08-01T12:41:15.591Z,97216.00
2022-08-01T12:46:17.618Z,97215.00
2022-08-01T12:51:18.682Z,97215.00
2022-08-01T12:56:32.427Z,97217.00
2022-08-01T13:01:33.330Z,97209.00
2022-08-01T13:06:35.689Z,97207.00
2022-08-01T13:11:36.655Z,97206.00
2022-08-01T13:16:56.806Z,97198.00
2022-08-01T13:21:58.632Z,97212.00
2022-08-01T13:27:03.354Z,97211.00
2022-08-01T13:32:28.561Z,97205.00
2022-08-01T13:37:31.314Z,97203.00
2022-08-01T13:42:33.552Z,97211.00
2022-08-01T13:47:34.648Z,97211.00
2022-08-01T13:52:35.593Z,97210.00
2022-08-01T13:57:37.415Z,97218.00
2022-08-01T14:02:39.149Z,97221.00
2022-08-01T14:07:41.416Z,97233.00
2022-08-01T14:12:42.499Z,97217.00
2022-08-01T14:17:47.972Z,97218.00
2022-08-01T14:22:49.422Z,97211.00
2022-08-01T14:27:50.297Z,97220.00
2022-08-01T14:32:51.191Z,97214.00
2022-08-01T14:37:52.540Z,97214.00
2022-08-01T14:42:58.821Z,97214.00
2022-08-01T14:47:59.788Z,97221.00
2022-08-01T14:53:01.115Z,97226.00
2022-08-01T14:58:02.027Z,97217.00
2022-08-01T15:03:03.543Z,97223.00
2022-08-01T15:08:06.266Z,97227.00
2022-08-01T15:13:08.021Z,97231.00
2022-08-01T15:18:09.153Z,97230.00
2022-08-01T15:23:10.096Z,97233.00
2022-08-01T15:28:12.020Z,97229.00
2022-08-01T15:33:12.867Z,97233.00
2022-08-01T15:38:13.755Z,97235.00
2022-08-01T15:43:15.873Z,97233.00
2022-08-01T15:48:17.531Z,97239.00
2022-08-01T15:53:18.603Z,97238.00
2022-08-01T15:58:19.717Z,97235.00
2022-08-01T16:03:21.134Z,97234.00
2022-08-01T16:08:22.257Z,97240.00
2022-08-01T16:13:23.227Z,97248.00
2022-08-01T16:18:24.335Z,97258.00
2022-08-01T16:23:25.216Z,97247.00
2022-08-01T16:28:26.365Z,97256.00
2022-08-01T16:33:45.118Z,97257.00
2022-08-01T16:38:55.365Z,97245.00
2022-08-01T16:43:56.228Z,97238.00
2022-08-01T16:48:57.394Z,97240.00
2022-08-01T16:53:58.263Z,97245.00
2022-08-01T16:58:59.243Z,97239.00
2022-08-01T17:04:01.660Z,97243.00
2022-08-01T17:09:03.874Z,97244.00
2022-08-01T17:14:05.001Z,97250.00
2022-08-01T17:19:06.132Z,97246.00
2022-08-01T17:24:07.403Z,97249.00
2022-08-01T17:29:08.460Z,97252.00
2022-08-01T17:34:09.304Z,97248.00
2022-08-01T17:39:11.645Z,97248.00
2022-08-01T17:44:13.597Z,97262.00
2022-08-01T17:49:14.598Z,97248.00
2022-08-01T17:54:15.498Z,97240.00
2022-08-01T17:59:17.223Z,97235.00
2022-08-01T18:04:18.040Z,97254.00
2022-08-01T18:09:19.497Z,97261.00
2022-08-01T18:14:21.999Z,97267.00
2022-08-01T18:19:41.910Z,97276.00
2022-08-01T18:24:47.650Z,97280.00
2022-08-01T18:29:48.861Z,97280.00
2022-08-01T18:34:50.101Z,97283.00
2022-08-01T18:39:50.977Z,97282.00
2022-08-01T18:44:52.965Z,97281.00
2022-08-01T18:49:53.904Z,97285.00
2022-08-01T18:54:56.698Z,97282.00
2022-08-01T18:59:57.961Z,97285.00
2022-08-01T19:04:58.944Z,97289.00
2022-08-01T19:10:00.033Z,97292.00
2022-08-01T19:15:04.783Z,97300.00
2022-08-01T19:20:07.369Z,97306.00
2022-08-01T19:25:08.797Z,97313.00
2022-08-01T19:30:10.685Z,97323.00
2022-08-01T19:35:15.866Z,97323.00
2022-08-01T19:40:27.019Z,97333.00
2022-08-01T19:45:29.236Z,97345.00
2022-08-01T19:50:31.991Z,97336.00
2022-08-01T19:55:39.439Z,97345.00
2022-08-01T20:00:42.086Z,97352.00
2022-08-01T20:05:43.177Z,97352.00
2022-08-01T20:10:46.152Z,97354.00
2022-08-01T20:15:48.001Z,97360.00
2022-08-01T20:20:51.070Z,97355.00
2022-08-01T20:25:58.260Z,97364.00
2022-08-01T20:31:05.151Z,97355.00
2022-08-01T20:36:11.917Z,97357.00
2022-08-01T20:41:13.391Z,97360.00
2022-08-01T20:46:15.268Z,97364.00
2022-08-01T20:51:16.698Z,97372.00
2022-08-01T20:56:49.663Z,97376.00
2022-08-01T21:05:30.088Z,97373.00
2022-08-01T21:10:31.960Z,97386.00
2022-08-01T21:15:39.216Z,97394.00
2022-08-01T21:21:14.137Z,97397.00
2022-08-01T21:26:18.538Z,97385.00
2022-08-01T21:31:20.957Z,97388.00
2022-08-01T21:36:26.014Z,97384.00
2022-08-01T21:42:03.340Z,97381.00
2022-08-01T21:47:11.840Z,97389.00
2022-08-01T21:52:17.279Z,97392.00
2022-08-01T21:57:55.414Z,97394.00
2022-08-01T22:03:35.384Z,97393.00
2022-08-01T22:08:43.830Z,97396.00
2022-08-01T22:13:45.261Z,97394.00
2022-08-01T22:18:46.384Z,97396.00
2022-08-01T22:23:49.778Z,97403.00
2022-08-01T22:28:51.664Z,97412.00
2022-08-01T22:33:53.643Z,97413.00
2022-08-01T22:38:54.464Z,97402.00
2022-08-01T22:44:02.011Z,97412.00
2022-08-01T22:49:21.531Z,97415.00
2022-08-01T22:54:31.053Z,97412.00
2022-08-01T22:59:48.510Z,97419.00
2022-08-01T23:04:54.352Z,97414.00
2022-08-01T23:09:57.005Z,97416.00
2022-08-01T23:14:59.541Z,97420.00
2022-08-01T23:20:03.286Z,97421.00
2022-08-01T23:25:07.359Z,97432.00
2022-08-01T23:30:09.326Z,97429.00
2022-08-01T23:35:10.191Z,97434.00
2022-08-01T23:40:11.637Z,97429.00
2022-08-01T23:45:12.694Z,97435.00
2022-08-01T23:50:13.643Z,97441.00
2022-08-01T23:55:15.513Z,97439.00
